Galesburg, Illinois
Current Conditions -  °F | °C
As of 3:55 AM on Thursday 29 Jan 2015 (Local Time) from KGBG Reporting Station
Clear Clear  
Wind Chill: 25°   Ceiling: Unl
Heat Index: 37°   Visibility: 10mi
Dew Point: 33°   Wind: 22mph
Humidity: 87%   Direction: 290°WNW
Pressure: 29.72"   Gusts: 29mph
Location:  40.95°N, 90.36°W
Report Text: KGBG 290955Z AUTO 29019G25KT 10SM CLR 03/01 A2972 RMK AO2 T00250005
Loading
Personal Weather Stations






























Interactive Weather Map New forecast layout! Learn more

10-Day Weather Forecast

Advertisements
Track Severe Weather on mobile